Time;durP1;ratioP1;P1;durP2;ratioP2;P2;SDS_P1;SDS_P2;PMS_P1;PMS_P2;Temp;Humidity;BMP_temperature;BMP_pressure;BME280_temperature;BME280_humidity;BME280_pressure;Samples;Min_cycle;Max_cycle;Signal;HPM_P1;HPM_P2
2022/09/12 00:01:07;;;;;;;;;8.00;8.00;;;;;;;;5098801;27;45442;-81
2022/09/12 00:03:33;;;;;;;;;7.67;7.00;;;;;;;;5097484;27;46407;-80
2022/09/12 00:05:58;;;;;;;;;13.67;7.67;;;;;;;;5098766;27;45472;-80
2022/09/12 00:08:23;;;;;;;;;10.33;9.00;;;;;;;;5098465;27;45378;-80
2022/09/12 00:10:48;;;;;;;;;7.33;6.00;;;;;;;;5098675;27;45522;-80
2022/09/12 00:13:13;;;;;;;;;8.33;8.33;;;;;;;;5098748;27;46309;-80
2022/09/12 00:15:40;;;;;;;;;12.33;10.33;;;;;;;;5099275;27;45376;-80
2022/09/12 00:18:05;;;;;;;;;8.00;7.00;;;;;;;;5098866;27;45250;-80
2022/09/12 00:20:30;;;;;;;;;6.67;6.67;;;;;;;;5078061;27;45198;-80
2022/09/12 00:22:56;;;;;;;;;10.00;8.00;;;;;;;;5078287;27;46636;-80
2022/09/12 00:25:21;;;;;;;;;10.00;7.00;;;;;;;;5077889;28;45560;-80
2022/09/12 00:27:46;;;;;;;;;8.67;8.00;;;;;;;;5078209;28;45378;-80
2022/09/12 00:30:11;;;;;;;;;9.33;8.00;;;;;;;;5078106;27;45234;-80
2022/09/12 00:32:37;;;;;;;;;13.00;12.00;;;;;;;;5077601;27;46369;-80
2022/09/12 00:35:02;;;;;;;;;7.33;7.33;;;;;;;;5078506;27;45376;-83
2022/09/12 00:37:27;;;;;;;;;14.33;14.33;;;;;;;;5098416;27;45234;-82
2022/09/12 00:39:53;;;;;;;;;12.67;11.00;;;;;;;;5098721;27;45425;-80
2022/09/12 00:42:18;;;;;;;;;11.33;11.33;;;;;;;;5098184;27;45296;-80
2022/09/12 00:44:45;;;;;;;;;10.33;8.00;;;;;;;;5098012;27;45313;-84
2022/09/12 00:47:30;;;;;;;;;9.33;8.67;;;;;;;;5098416;27;45377;-86
2022/09/12 00:49:58;;;;;;;;;13.00;11.00;;;;;;;;5098434;27;45320;-84
2022/09/12 00:52:36;;;;;;;;;12.00;9.00;;;;;;;;5078781;27;45565;-86
2022/09/12 00:55:21;;;;;;;;;10.33;9.67;;;;;;;;5077861;28;45170;-86
2022/09/12 00:58:15;;;;;;;;;11.67;10.67;;;;;;;;5077763;28;45450;-85
2022/09/12 01:00:41;;;;;;;;;10.33;8.00;;;;;;;;5035340;28;45421;-86
2022/09/12 01:03:08;;;;;;;;;9.00;9.00;;;;;;;;5035254;28;45525;-86
2022/09/12 01:05:34;;;;;;;;;9.33;9.33;;;;;;;;5035789;28;45435;-86
2022/09/12 01:08:01;;;;;;;;;10.33;8.00;;;;;;;;5039304;28;45409;-87
2022/09/12 01:10:26;;;;;;;;;8.00;7.00;;;;;;;;5039081;28;45407;-85
2022/09/12 01:12:51;;;;;;;;;8.00;8.00;;;;;;;;5038780;28;46509;-88
2022/09/12 01:15:17;;;;;;;;;11.00;9.67;;;;;;;;5038799;28;45449;-86
2022/09/12 01:18:07;;;;;;;;;8.00;8.00;;;;;;;;5038598;28;45415;-86
2022/09/12 01:20:41;;;;;;;;;10.33;8.67;;;;;;;;5038022;28;45433;-87
2022/09/12 01:23:22;;;;;;;;;9.67;9.00;;;;;;;;5038498;28;45328;-86
2022/09/12 01:26:01;;;;;;;;;10.33;10.00;;;;;;;;5038716;28;45405;-85
2022/09/12 01:28:44;;;;;;;;;10.33;9.67;;;;;;;;5039309;28;45467;-85
2022/09/12 01:31:09;;;;;;;;;13.00;9.67;;;;;;;;5039305;28;45386;-86
2022/09/12 01:33:49;;;;;;;;;9.00;9.00;;;;;;;;5038091;28;45423;-88
2022/09/12 01:36:15;;;;;;;;;12.67;9.67;;;;;;;;5044814;28;45383;-87
2022/09/12 01:38:49;;;;;;;;;10.33;10.00;;;;;;;;5081102;27;45323;-88
2022/09/12 01:41:20;;;;;;;;;10.33;8.67;;;;;;;;5081391;28;45357;-88
2022/09/12 01:43:51;;;;;;;;;18.00;11.00;;;;;;;;5080800;27;46239;-88
2022/09/12 01:46:18;;;;;;;;;12.67;11.00;;;;;;;;5081687;28;45365;-85
2022/09/12 01:48:43;;;;;;;;;11.33;9.33;;;;;;;;5080884;28;45402;-88
2022/09/12 01:51:14;;;;;;;;;11.67;10.67;;;;;;;;5081231;27;45367;-87
2022/09/12 01:53:45;;;;;;;;;8.67;8.67;;;;;;;;5081098;28;45557;-87
2022/09/12 01:56:21;;;;;;;;;15.00;11.00;;;;;;;;5096743;27;45263;-88
2022/09/12 01:59:06;;;;;;;;;6.67;6.67;;;;;;;;5101561;27;45542;-87
2022/09/12 02:01:33;;;;;;;;;12.33;11.33;;;;;;;;5100934;27;45246;-86
2022/09/12 02:04:24;;;;;;;;;13.67;13.67;;;;;;;;5101091;27;47495;-86
2022/09/12 02:06:52;;;;;;;;;14.00;11.67;;;;;;;;5097787;27;45288;-88
2022/09/12 02:09:20;;;;;;;;;13.33;11.33;;;;;;;;5100232;27;45303;-88
2022/09/12 02:11:48;;;;;;;;;18.00;13.33;;;;;;;;5100838;27;45277;-88
2022/09/12 02:14:16;;;;;;;;;17.00;14.00;;;;;;;;5101515;27;45828;-89
2022/09/12 02:16:46;;;;;;;;;48.67;41.33;;;;;;;;5100793;27;45320;-86
2022/09/12 02:19:14;;;;;;;;;17.00;12.33;;;;;;;;5100485;27;45283;-84
2022/09/12 02:21:43;;;;;;;;;12.33;11.00;;;;;;;;5100846;27;45302;-84
2022/09/12 02:24:09;;;;;;;;;14.00;13.00;;;;;;;;5100390;27;46213;-85
2022/09/12 02:26:41;;;;;;;;;20.67;12.33;;;;;;;;5090133;27;45333;-84
2022/09/12 02:29:06;;;;;;;;;17.00;13.67;;;;;;;;5079948;28;45284;-83
2022/09/12 02:31:34;;;;;;;;;20.00;12.67;;;;;;;;5079952;27;45218;-84
2022/09/12 02:34:15;;;;;;;;;16.67;13.00;;;;;;;;5079563;27;45709;-83
2022/09/12 02:37:00;;;;;;;;;21.67;14.67;;;;;;;;5080083;28;45321;-86
2022/09/12 02:39:25;;;;;;;;;17.33;14.00;;;;;;;;5080271;28;45215;-84
2022/09/12 02:41:51;;;;;;;;;19.67;13.67;;;;;;;;5080472;27;45573;-86
2022/09/12 02:44:17;;;;;;;;;17.33;13.67;;;;;;;;5080083;27;45326;-87
2022/09/12 02:46:46;;;;;;;;;20.00;14.33;;;;;;;;5079720;28;45259;-85
2022/09/12 02:49:11;;;;;;;;;19.00;13.00;;;;;;;;5080218;28;45336;-87
2022/09/12 02:51:36;;;;;;;;;21.00;17.33;;;;;;;;5080923;28;45435;-87
2022/09/12 02:54:02;;;;;;;;;19.33;17.00;;;;;;;;5080789;28;46190;-87
2022/09/12 02:56:28;;;;;;;;;17.67;17.67;;;;;;;;5080334;28;45436;-86
2022/09/12 02:58:56;;;;;;;;;19.00;13.33;;;;;;;;5080876;28;45254;-87
2022/09/12 03:01:21;;;;;;;;;17.33;15.67;;;;;;;;5080831;27;45290;-85
2022/09/12 03:03:53;;;;;;;;;19.67;16.00;;;;;;;;5079477;28;46422;-87
2022/09/12 03:06:27;;;;;;;;;17.00;13.33;;;;;;;;5079725;28;45456;-86
2022/09/12 03:08:59;;;;;;;;;20.00;16.00;;;;;;;;5079525;27;45476;-90
2022/09/12 03:11:35;;;;;;;;;20.33;18.00;;;;;;;;5080988;28;45291;-89
2022/09/12 03:14:06;;;;;;;;;18.00;15.67;;;;;;;;5080616;28;46894;-88
2022/09/12 03:16:43;;;;;;;;;14.67;12.67;;;;;;;;5080350;27;45319;-88
2022/09/12 03:19:15;;;;;;;;;16.33;12.00;;;;;;;;5080171;28;45381;-88
2022/09/12 03:21:40;;;;;;;;;21.33;14.67;;;;;;;;5080312;28;45479;-84
2022/09/12 03:24:18;;;;;;;;;17.00;13.33;;;;;;;;5079055;28;46915;-86
2022/09/12 03:26:47;;;;;;;;;17.67;14.33;;;;;;;;5079901;27;45341;-88
2022/09/12 03:29:13;;;;;;;;;17.67;13.33;;;;;;;;5078712;28;45299;-89
2022/09/12 03:31:47;;;;;;;;;17.33;14.67;;;;;;;;5079518;28;45380;-85
2022/09/12 03:34:12;;;;;;;;;18.33;13.33;;;;;;;;5079337;28;45331;-87
2022/09/12 03:36:38;;;;;;;;;24.00;20.33;;;;;;;;5079001;28;45508;-87
2022/09/12 03:39:03;;;;;;;;;19.00;18.00;;;;;;;;5079290;28;45337;-87
2022/09/12 03:41:28;;;;;;;;;18.00;15.33;;;;;;;;5079556;28;45361;-87
2022/09/12 03:43:55;;;;;;;;;17.00;13.67;;;;;;;;5079223;28;45639;-87
2022/09/12 03:46:21;;;;;;;;;16.67;14.33;;;;;;;;5078963;27;45682;-85
2022/09/12 03:48:46;;;;;;;;;15.00;15.00;;;;;;;;5090174;27;45326;-85
2022/09/12 03:51:11;;;;;;;;;9.33;6.33;;;;;;;;5099722;27;45701;-85
2022/09/12 03:53:36;;;;;;;;;23.67;15.67;;;;;;;;5099341;27;45605;-86
2022/09/12 03:56:06;;;;;;;;;14.67;12.33;;;;;;;;5099668;27;45328;-84
2022/09/12 03:58:31;;;;;;;;;14.33;14.33;;;;;;;;5099100;27;45365;-84
2022/09/12 04:00:56;;;;;;;;;18.67;14.67;;;;;;;;5099318;27;45458;-83
2022/09/12 04:03:22;;;;;;;;;19.00;15.00;;;;;;;;5098533;27;46192;-82
2022/09/12 04:05:47;;;;;;;;;12.67;12.67;;;;;;;;5097784;27;45566;-83
2022/09/12 04:08:12;;;;;;;;;15.33;12.33;;;;;;;;5098930;27;45366;-83
2022/09/12 04:10:38;;;;;;;;;13.33;12.00;;;;;;;;5098817;27;45403;-82
2022/09/12 04:13:03;;;;;;;;;18.00;15.00;;;;;;;;5098423;27;46342;-85
2022/09/12 04:15:28;;;;;;;;;22.33;18.00;;;;;;;;5098138;27;45395;-84
2022/09/12 04:17:54;;;;;;;;;17.67;17.33;;;;;;;;5099124;27;45975;-85
2022/09/12 04:20:19;;;;;;;;;15.00;13.00;;;;;;;;5098909;27;45297;-85
2022/09/12 04:22:44;;;;;;;;;17.00;16.33;;;;;;;;5098108;27;47079;-85
2022/09/12 04:25:10;;;;;;;;;17.33;15.00;;;;;;;;5098934;27;45309;-87
2022/09/12 04:27:36;;;;;;;;;16.00;16.00;;;;;;;;5098931;27;45435;-85
2022/09/12 04:30:01;;;;;;;;;18.33;16.33;;;;;;;;5098683;27;45256;-87
2022/09/12 04:32:28;;;;;;;;;24.33;19.00;;;;;;;;5098586;27;46359;-85
2022/09/12 04:34:53;;;;;;;;;19.67;17.00;;;;;;;;5098496;27;45304;-85
2022/09/12 04:37:18;;;;;;;;;16.67;12.00;;;;;;;;5098547;27;45450;-84
2022/09/12 04:39:43;;;;;;;;;19.00;14.33;;;;;;;;5097502;27;45193;-85
2022/09/12 04:42:09;;;;;;;;;20.33;15.67;;;;;;;;5098567;27;46404;-87
2022/09/12 04:44:34;;;;;;;;;23.67;17.33;;;;;;;;5098487;27;45365;-84
2022/09/12 04:46:59;;;;;;;;;18.00;15.33;;;;;;;;5098234;27;45439;-84
2022/09/12 04:49:24;;;;;;;;;20.33;20.33;;;;;;;;5098087;27;45373;-83
2022/09/12 04:51:51;;;;;;;;;16.00;14.00;;;;;;;;5097912;27;47385;-84
2022/09/12 04:54:17;;;;;;;;;20.67;19.00;;;;;;;;5096974;27;45490;-83
2022/09/12 04:56:43;;;;;;;;;25.00;18.33;;;;;;;;5097943;27;45458;-83
2022/09/12 04:59:09;;;;;;;;;21.67;18.67;;;;;;;;5098082;27;45352;-83
2022/09/12 05:01:35;;;;;;;;;19.00;17.67;;;;;;;;5097570;27;46512;-84
2022/09/12 05:04:01;;;;;;;;;18.00;14.67;;;;;;;;5097825;27;45472;-85
2022/09/12 05:06:35;;;;;;;;;23.67;20.00;;;;;;;;5098196;27;45570;-84
2022/09/12 05:09:02;;;;;;;;;22.67;17.67;;;;;;;;5097337;27;45590;-87
2022/09/12 05:11:29;;;;;;;;;21.00;17.33;;;;;;;;5098599;27;45999;-86
2022/09/12 05:13:55;;;;;;;;;15.33;15.00;;;;;;;;5099325;27;45183;-85
2022/09/12 05:16:20;;;;;;;;;21.67;20.00;;;;;;;;5098973;27;45345;-86
2022/09/12 05:18:46;;;;;;;;;18.33;17.67;;;;;;;;5098572;27;45327;-86
2022/09/12 05:21:12;;;;;;;;;21.67;18.33;;;;;;;;5097600;27;45783;-87
2022/09/12 05:23:38;;;;;;;;;16.00;15.00;;;;;;;;5080047;27;45421;-86
2022/09/12 05:26:04;;;;;;;;;19.33;17.00;;;;;;;;5090023;27;45315;-86
2022/09/12 05:28:34;;;;;;;;;16.33;15.33;;;;;;;;5118915;27;45311;-86
2022/09/12 05:31:00;;;;;;;;;23.00;19.67;;;;;;;;5118409;27;46023;-86
2022/09/12 05:33:25;;;;;;;;;21.67;15.33;;;;;;;;5118302;27;45430;-88
2022/09/12 05:35:51;;;;;;;;;27.00;21.00;;;;;;;;5118557;27;45321;-86
2022/09/12 05:38:17;;;;;;;;;18.67;18.00;;;;;;;;5118906;27;45320;-86
2022/09/12 05:40:42;;;;;;;;;20.33;17.67;;;;;;;;5118284;27;46261;-87
2022/09/12 05:43:07;;;;;;;;;17.00;15.00;;;;;;;;5087704;27;45342;-86
2022/09/12 05:45:33;;;;;;;;;17.00;15.00;;;;;;;;5077277;28;45376;-87
2022/09/12 05:47:58;;;;;;;;;21.33;18.00;;;;;;;;5077731;28;45385;-86
2022/09/12 05:50:24;;;;;;;;;19.00;15.33;;;;;;;;5076905;28;46467;-86
2022/09/12 05:52:49;;;;;;;;;16.33;16.33;;;;;;;;5079430;28;45639;-85
2022/09/12 05:55:15;;;;;;;;;15.67;15.67;;;;;;;;5080750;28;45294;-86
2022/09/12 05:57:44;;;;;;;;;18.67;17.67;;;;;;;;5080744;28;45282;-84
2022/09/12 06:00:10;;;;;;;;;28.67;20.33;;;;;;;;5079856;27;45433;-83
2022/09/12 06:02:35;;;;;;;;;19.00;18.00;;;;;;;;5080166;28;45372;-83
2022/09/12 06:05:00;;;;;;;;;15.67;15.67;;;;;;;;5080341;28;45486;-86
2022/09/12 06:07:26;;;;;;;;;18.00;16.33;;;;;;;;5081795;28;45348;-87
2022/09/12 06:09:51;;;;;;;;;20.67;18.33;;;;;;;;5081894;28;47142;-87
2022/09/12 06:12:16;;;;;;;;;22.67;20.00;;;;;;;;5081945;28;45246;-87
2022/09/12 06:14:42;;;;;;;;;18.67;17.67;;;;;;;;5080625;28;45319;-84
2022/09/12 06:17:07;;;;;;;;;20.00;13.00;;;;;;;;5079855;27;45229;-85
2022/09/12 06:19:33;;;;;;;;;19.00;13.67;;;;;;;;5079677;28;46718;-84
2022/09/12 06:21:58;;;;;;;;;26.33;20.00;;;;;;;;5079708;28;45646;-83
2022/09/12 06:24:23;;;;;;;;;18.00;16.33;;;;;;;;5080103;28;45352;-85
2022/09/12 06:26:50;;;;;;;;;19.67;17.33;;;;;;;;5080207;28;45300;-83
2022/09/12 06:29:16;;;;;;;;;17.33;15.67;;;;;;;;5079871;28;46761;-82
2022/09/12 06:31:42;;;;;;;;;19.67;17.33;;;;;;;;5079592;28;45416;-82
2022/09/12 06:34:09;;;;;;;;;21.00;20.67;;;;;;;;5079475;27;45261;-84
2022/09/12 06:36:38;;;;;;;;;27.00;25.33;;;;;;;;5079961;28;45257;-83
2022/09/12 06:39:06;;;;;;;;;12.33;12.00;;;;;;;;5079496;28;46244;-85
2022/09/12 06:41:31;;;;;;;;;11.67;11.67;;;;;;;;5079596;27;45278;-84
2022/09/12 06:43:57;;;;;;;;;16.33;12.00;;;;;;;;5079904;28;45415;-83
2022/09/12 06:46:23;;;;;;;;;17.00;14.33;;;;;;;;5079955;28;45226;-84
2022/09/12 06:48:48;;;;;;;;;16.67;13.67;;;;;;;;5079511;28;46594;-85
2022/09/12 06:51:14;;;;;;;;;13.67;12.33;;;;;;;;5079382;28;45340;-82
2022/09/12 06:53:42;;;;;;;;;14.00;11.67;;;;;;;;5079505;28;45443;-82
2022/09/12 06:56:11;;;;;;;;;14.67;14.00;;;;;;;;5079700;28;45439;-83
2022/09/12 06:58:37;;;;;;;;;11.67;11.67;;;;;;;;5079349;28;45518;-84
2022/09/12 07:01:03;;;;;;;;;11.00;11.00;;;;;;;;5079758;28;45266;-86
2022/09/12 07:03:29;;;;;;;;;20.33;12.33;;;;;;;;5079909;28;45245;-88
2022/09/12 07:05:54;;;;;;;;;13.33;10.00;;;;;;;;5079869;27;45286;-85
2022/09/12 07:08:19;;;;;;;;;11.00;11.00;;;;;;;;5080175;28;46790;-87
2022/09/12 07:10:45;;;;;;;;;11.33;10.33;;;;;;;;5079668;28;45210;-86
2022/09/12 07:13:10;;;;;;;;;11.67;10.33;;;;;;;;5079195;28;45382;-84
2022/09/12 07:15:35;;;;;;;;;11.00;9.67;;;;;;;;5080478;28;45530;-89
2022/09/12 07:18:01;;;;;;;;;10.00;8.33;;;;;;;;5080581;28;46489;-87
2022/09/12 07:20:26;;;;;;;;;10.67;8.33;;;;;;;;5080762;28;45324;-89
2022/09/12 07:22:51;;;;;;;;;10.33;10.00;;;;;;;;5080071;28;45421;-86
2022/09/12 07:25:17;;;;;;;;;10.33;9.33;;;;;;;;5080628;28;45324;-89
2022/09/12 07:27:42;;;;;;;;;13.67;10.00;;;;;;;;5079754;28;46377;-87
2022/09/12 07:30:07;;;;;;;;;11.67;11.00;;;;;;;;5079898;28;45353;-88
2022/09/12 07:32:32;;;;;;;;;9.00;8.67;;;;;;;;5079414;28;45308;-83
2022/09/12 07:34:58;;;;;;;;;18.00;14.33;;;;;;;;5079707;28;45316;-87
2022/09/12 07:37:23;;;;;;;;;11.00;9.33;;;;;;;;5079389;28;46275;-85
2022/09/12 07:39:49;;;;;;;;;8.33;8.33;;;;;;;;5079409;28;45346;-86
2022/09/12 07:42:14;;;;;;;;;10.00;9.33;;;;;;;;5079518;28;45383;-86
2022/09/12 07:44:39;;;;;;;;;13.00;9.33;;;;;;;;5079395;28;45324;-83
2022/09/12 07:47:04;;;;;;;;;7.00;7.00;;;;;;;;5079004;28;46514;-85
2022/09/12 07:49:30;;;;;;;;;9.33;8.00;;;;;;;;5079364;28;45412;-86
2022/09/12 07:51:55;;;;;;;;;11.67;8.67;;;;;;;;5078642;28;45275;-88
2022/09/12 07:54:20;;;;;;;;;12.67;10.67;;;;;;;;5079237;28;45380;-84
2022/09/12 07:56:46;;;;;;;;;8.67;7.67;;;;;;;;5078757;28;45636;-84
2022/09/12 07:59:11;;;;;;;;;7.33;7.33;;;;;;;;5078765;28;45144;-85
2022/09/12 08:01:38;;;;;;;;;7.67;7.67;;;;;;;;5079175;28;45231;-85
2022/09/12 08:04:04;;;;;;;;;10.33;10.33;;;;;;;;5078809;28;45301;-82
2022/09/12 08:06:31;;;;;;;;;8.67;8.67;;;;;;;;5078108;28;46142;-83
2022/09/12 08:08:57;;;;;;;;;8.67;7.00;;;;;;;;5078408;28;45363;-85
2022/09/12 08:11:23;;;;;;;;;6.67;6.67;;;;;;;;5078367;27;45224;-83
2022/09/12 08:13:48;;;;;;;;;6.67;6.67;;;;;;;;5078316;28;45332;-84
2022/09/12 08:16:15;;;;;;;;;11.00;8.00;;;;;;;;5078065;28;47178;-81
2022/09/12 08:18:40;;;;;;;;;7.33;7.33;;;;;;;;5078346;28;45307;-82
2022/09/12 08:21:07;;;;;;;;;7.00;5.67;;;;;;;;5077553;28;45431;-83
2022/09/12 08:23:32;;;;;;;;;10.00;8.00;;;;;;;;5078550;27;45498;-83
2022/09/12 08:26:00;;;;;;;;;8.33;8.33;;;;;;;;5078007;28;45424;-83
2022/09/12 08:28:25;;;;;;;;;8.00;8.00;;;;;;;;5078067;28;45396;-84
2022/09/12 08:30:51;;;;;;;;;8.00;6.33;;;;;;;;5078058;28;45325;-82
2022/09/12 08:33:17;;;;;;;;;5.67;5.67;;;;;;;;5078385;28;45820;-84
2022/09/12 08:35:42;;;;;;;;;9.00;7.67;;;;;;;;5077786;28;45397;-84
2022/09/12 08:38:07;;;;;;;;;10.67;9.33;;;;;;;;5078094;28;45301;-83
2022/09/12 08:40:42;;;;;;;;;8.33;5.33;;;;;;;;5078262;28;45373;-82
2022/09/12 08:43:26;;;;;;;;;8.00;8.00;;;;;;;;5078128;28;45308;-82
2022/09/12 08:45:59;;;;;;;;;8.67;8.00;;;;;;;;5077611;28;45472;-83
2022/09/12 08:48:25;;;;;;;;;12.00;7.67;;;;;;;;5077827;28;45582;-82
2022/09/12 08:50:50;;;;;;;;;10.00;10.00;;;;;;;;5077366;28;45293;-82
2022/09/12 08:53:17;;;;;;;;;10.33;7.33;;;;;;;;5078173;28;45403;-80
2022/09/12 08:55:55;;;;;;;;;11.67;7.00;;;;;;;;5077548;28;47131;-82
2022/09/12 08:58:21;;;;;;;;;6.33;6.33;;;;;;;;5077715;28;45332;-83
2022/09/12 09:00:59;;;;;;;;;1.00;1.00;;;;;;;;5077739;28;45402;-84
2022/09/12 09:03:27;;;;;;;;;8.67;8.67;;;;;;;;5077739;28;45230;-82
2022/09/12 09:06:22;;;;;;;;;9.00;7.33;;;;;;;;5077594;28;46736;-83
2022/09/12 09:09:06;;;;;;;;;9.00;7.00;;;;;;;;4994940;28;45465;-84
2022/09/12 09:11:36;;;;;;;;;7.33;6.00;;;;;;;;4995154;28;45627;-83
2022/09/12 09:17:01;;;;;;;;;5.33;5.33;;;;;;;;4995053;28;45471;-81
2022/09/12 09:19:33;;;;;;;;;11.00;5.67;;;;;;;;4994959;28;45338;-83
2022/09/12 09:21:58;;;;;;;;;7.00;7.00;;;;;;;;4995011;28;45464;-83
2022/09/12 09:24:37;;;;;;;;;8.00;8.00;;;;;;;;4995201;28;45308;-80
2022/09/12 09:27:05;;;;;;;;;11.00;9.00;;;;;;;;4996269;28;45589;-81
2022/09/12 09:29:56;;;;;;;;;9.33;7.00;;;;;;;;4998491;28;45525;-80
2022/09/12 09:32:26;;;;;;;;;9.00;9.00;;;;;;;;4997278;28;45387;-83
2022/09/12 09:34:51;;;;;;;;;11.33;8.00;;;;;;;;4998812;28;45320;-80
2022/09/12 09:37:22;;;;;;;;;8.00;8.00;;;;;;;;4998020;28;47326;-80
2022/09/12 09:39:55;;;;;;;;;7.33;7.33;;;;;;;;4998220;28;45582;-81
2022/09/12 09:42:21;;;;;;;;;8.67;8.00;;;;;;;;4999114;28;45438;-80
2022/09/12 09:44:47;;;;;;;;;6.00;5.67;;;;;;;;5025475;28;45433;-80
2022/09/12 09:47:13;;;;;;;;;9.00;7.67;;;;;;;;5080277;28;45414;-77
2022/09/12 09:49:38;;;;;;;;;6.33;6.33;;;;;;;;5080373;28;45348;-80
2022/09/12 09:52:05;;;;;;;;;6.33;5.67;;;;;;;;5080725;27;45254;-80
2022/09/12 09:54:34;;;;;;;;;7.00;6.67;;;;;;;;5081181;27;45721;-79
2022/09/12 09:57:00;;;;;;;;;6.00;6.00;;;;;;;;5080156;27;46423;-79
2022/09/12 09:59:27;;;;;;;;;7.67;6.00;;;;;;;;5080518;27;45399;-79
2022/09/12 10:01:53;;;;;;;;;4.33;3.00;;;;;;;;5080603;28;45415;-80
2022/09/12 10:04:26;;;;;;;;;5.33;5.33;;;;;;;;5080396;27;45473;-79
2022/09/12 10:06:53;;;;;;;;;5.00;5.00;;;;;;;;5080989;27;46047;-81
2022/09/12 10:09:21;;;;;;;;;5.00;3.67;;;;;;;;5080255;28;45436;-79
2022/09/12 10:11:47;;;;;;;;;7.67;6.00;;;;;;;;5080221;28;45516;-79
2022/09/12 10:14:31;;;;;;;;;6.00;4.33;;;;;;;;5080490;27;45247;-79
2022/09/12 10:16:57;;;;;;;;;4.00;4.00;;;;;;;;5080008;28;46573;-79
2022/09/12 10:19:31;;;;;;;;;6.67;5.00;;;;;;;;5079923;28;45414;-79
2022/09/12 10:21:57;;;;;;;;;4.33;4.33;;;;;;;;5080168;28;45293;-79
2022/09/12 10:24:42;;;;;;;;;3.33;3.33;;;;;;;;5080319;27;45296;-79
2022/09/12 10:27:10;;;;;;;;;6.00;4.33;;;;;;;;5079841;27;46215;-79
2022/09/12 10:29:47;;;;;;;;;4.33;3.67;;;;;;;;5079732;28;45423;-79
2022/09/12 10:32:20;;;;;;;;;5.00;3.33;;;;;;;;5079957;27;45380;-77
2022/09/12 10:34:45;;;;;;;;;4.33;3.67;;;;;;;;5080216;28;45373;-79
2022/09/12 10:37:29;;;;;;;;;5.00;5.00;;;;;;;;5079184;28;46216;-78
2022/09/12 10:39:56;;;;;;;;;6.33;3.00;;;;;;;;5079753;28;45215;-78
2022/09/12 10:42:44;;;;;;;;;4.67;3.00;;;;;;;;5079770;28;45419;-79
2022/09/12 10:45:36;;;;;;;;;20.33;20.00;;;;;;;;5079799;28;45313;-79
2022/09/12 10:48:23;;;;;;;;;3.67;3.67;;;;;;;;5075535;28;46291;-78
2022/09/12 10:50:48;;;;;;;;;35.25;32.75;;;;;;;;5079177;28;45704;-78
2022/09/12 10:53:19;;;;;;;;;4.67;4.67;;;;;;;;5079754;28;45340;-78
2022/09/12 10:55:54;;;;;;;;;2.33;2.33;;;;;;;;5079849;28;45349;-79
2022/09/12 10:58:28;;;;;;;;;2.33;2.33;;;;;;;;5079439;28;46216;-79
2022/09/12 11:00:58;;;;;;;;;4.00;3.67;;;;;;;;5079531;28;45300;-78
2022/09/12 11:03:35;;;;;;;;;2.33;2.33;;;;;;;;5079394;27;45313;-79
2022/09/12 11:06:00;;;;;;;;;4.33;4.33;;;;;;;;5079568;28;45414;-80
2022/09/12 11:08:49;;;;;;;;;5.33;4.00;;;;;;;;5079449;28;47435;-82
2022/09/12 11:11:33;;;;;;;;;4.00;4.00;;;;;;;;5079336;27;45328;-79
2022/09/12 11:14:02;;;;;;;;;2.00;2.00;;;;;;;;5079388;28;45212;-78
2022/09/12 11:16:47;;;;;;;;;6.00;6.00;;;;;;;;5079311;28;45297;-81
2022/09/12 11:19:28;;;;;;;;;5.33;3.67;;;;;;;;5078588;28;46126;-80
2022/09/12 11:22:04;;;;;;;;;11.00;11.00;;;;;;;;5078952;28;45189;-80
2022/09/12 11:25:01;;;;;;;;;6.33;6.33;;;;;;;;5079137;28;45462;-84
2022/09/12 11:27:34;;;;;;;;;3.67;3.67;;;;;;;;4996996;28;45375;-79
2022/09/12 11:29:59;;;;;;;;;3.00;3.00;;;;;;;;4996465;28;46389;-80
2022/09/12 11:32:43;;;;;;;;;1.67;1.67;;;;;;;;4996741;28;45718;-81
2022/09/12 11:35:08;;;;;;;;;3.00;3.00;;;;;;;;4996862;28;45277;-80
2022/09/12 11:37:42;;;;;;;;;4.00;3.00;;;;;;;;4996726;28;45488;-81
2022/09/12 11:40:26;;;;;;;;;2.00;2.00;;;;;;;;4996587;28;46238;-81
2022/09/12 11:42:54;;;;;;;;;2.67;2.67;;;;;;;;4996653;28;45392;-77
2022/09/12 11:45:25;;;;;;;;;5.33;3.00;;;;;;;;4996564;28;45516;-80
2022/09/12 11:47:56;;;;;;;;;4.00;4.00;;;;;;;;4996479;28;45952;-79
2022/09/12 11:50:25;;;;;;;;;3.00;3.00;;;;;;;;4995079;28;46259;-79
2022/09/12 11:52:52;;;;;;;;;1.67;1.67;;;;;;;;4996095;28;45372;-80
2022/09/12 11:55:20;;;;;;;;;3.00;2.00;;;;;;;;4996467;28;45358;-80
2022/09/12 11:57:45;;;;;;;;;2.00;2.00;;;;;;;;4996609;28;45442;-83
2022/09/12 12:00:16;;;;;;;;;4.00;4.00;;;;;;;;4996034;28;45373;-81
2022/09/12 12:03:00;;;;;;;;;4.00;4.00;;;;;;;;5025151;28;45405;-80
2022/09/12 12:05:30;;;;;;;;;3.67;1.33;;;;;;;;5078640;28;45360;-81
2022/09/12 12:08:00;;;;;;;;;4.00;2.33;;;;;;;;5078776;28;45191;-78
2022/09/12 12:10:25;;;;;;;;;3.00;3.00;;;;;;;;5077850;28;46784;-78
2022/09/12 12:12:51;;;;;;;;;3.00;3.00;;;;;;;;5078561;28;45333;-80
2022/09/12 12:15:17;;;;;;;;;2.67;2.67;;;;;;;;5078468;28;45199;-79
2022/09/12 12:17:43;;;;;;;;;2.00;2.00;;;;;;;;5078463;28;45374;-79
2022/09/12 12:20:14;;;;;;;;;4.67;3.00;;;;;;;;5078273;28;46662;-78
2022/09/12 12:22:49;;;;;;;;;5.00;2.00;;;;;;;;5078072;28;45321;-82
2022/09/12 12:25:15;;;;;;;;;3.00;3.00;;;;;;;;5078485;28;45304;-79
2022/09/12 12:27:43;;;;;;;;;3.00;3.00;;;;;;;;5078489;28;45377;-80
2022/09/12 12:30:28;;;;;;;;;2.00;2.00;;;;;;;;5077936;28;46745;-80
2022/09/12 12:33:14;;;;;;;;;3.33;3.33;;;;;;;;5077862;28;45384;-79
2022/09/12 12:35:39;;;;;;;;;0.00;0.00;;;;;;;;5077466;28;45612;-81
2022/09/12 12:38:24;;;;;;;;;3.00;3.00;;;;;;;;5078277;28;45501;-79
2022/09/12 12:40:49;;;;;;;;;2.00;1.00;;;;;;;;5077619;28;46470;-78
2022/09/12 12:43:35;;;;;;;;;2.67;2.67;;;;;;;;5077902;28;45236;-82
2022/09/12 12:46:02;;;;;;;;;5.00;2.00;;;;;;;;5077375;28;45250;-77
2022/09/12 12:48:29;;;;;;;;;4.00;2.00;;;;;;;;5078001;28;45303;-80
2022/09/12 12:51:14;;;;;;;;;3.00;3.00;;;;;;;;5077801;28;45443;-80
2022/09/12 12:53:40;;;;;;;;;3.33;3.00;;;;;;;;5077594;28;45439;-79
2022/09/12 12:56:24;;;;;;;;;3.00;3.00;;;;;;;;5077786;28;45373;-80
2022/09/12 12:58:56;;;;;;;;;2.00;2.00;;;;;;;;5077970;28;45411;-79
2022/09/12 13:01:22;;;;;;;;;16.67;11.00;;;;;;;;5077561;28;45443;-77
2022/09/12 13:03:55;;;;;;;;;4.33;2.33;;;;;;;;5077484;28;45411;-80
2022/09/12 13:06:33;;;;;;;;;3.33;2.00;;;;;;;;5077783;28;45269;-81
2022/09/12 13:09:16;;;;;;;;;3.00;3.00;;;;;;;;5077402;28;45297;-79
2022/09/12 13:11:42;;;;;;;;;4.67;3.00;;;;;;;;5077355;28;46435;-79
2022/09/12 13:14:27;;;;;;;;;2.00;2.00;;;;;;;;5077333;28;45347;-77
2022/09/12 13:16:54;;;;;;;;;2.00;2.00;;;;;;;;5077483;28;45336;-79
2022/09/12 13:19:23;;;;;;;;;3.00;3.00;;;;;;;;5077614;28;45455;-79
2022/09/12 13:21:54;;;;;;;;;3.67;3.00;;;;;;;;5077351;28;46662;-79
2022/09/12 13:24:21;;;;;;;;;2.00;2.00;;;;;;;;5077161;28;45417;-78
2022/09/12 13:26:46;;;;;;;;;2.67;2.67;;;;;;;;5077386;28;45368;-80
2022/09/12 13:29:19;;;;;;;;;2.00;2.00;;;;;;;;5077508;28;45486;-79
2022/09/12 13:31:45;;;;;;;;;1.00;1.00;;;;;;;;5076625;28;45531;-81
2022/09/12 13:34:15;;;;;;;;;2.00;2.00;;;;;;;;5077060;28;45461;-82
2022/09/12 13:36:46;;;;;;;;;2.00;2.00;;;;;;;;5077332;28;45276;-78
2022/09/12 13:39:14;;;;;;;;;3.67;2.67;;;;;;;;5077274;28;45345;-79
2022/09/12 13:41:58;;;;;;;;;1.67;1.67;;;;;;;;5076758;28;46713;-80
2022/09/12 13:44:25;;;;;;;;;3.00;3.00;;;;;;;;5077182;28;45276;-81
2022/09/12 13:46:51;;;;;;;;;3.00;3.00;;;;;;;;5077077;28;45370;-80
2022/09/12 13:49:19;;;;;;;;;1.00;1.00;;;;;;;;5077296;28;45394;-81
2022/09/12 13:51:44;;;;;;;;;3.00;3.00;;;;;;;;5076959;28;47197;-80
2022/09/12 13:54:15;;;;;;;;;3.00;3.00;;;;;;;;5076534;28;45423;-79
2022/09/12 13:56:47;;;;;;;;;2.00;2.00;;;;;;;;5077189;28;45244;-79
2022/09/12 13:59:12;;;;;;;;;2.00;2.00;;;;;;;;5077315;28;45413;-78
2022/09/12 14:01:42;;;;;;;;;2.00;2.00;;;;;;;;5076778;28;45354;-78
2022/09/12 14:06:59;;;;;;;;;5.00;5.00;;;;;;;;5076851;28;45324;-79
2022/09/12 14:09:27;;;;;;;;;2.00;2.00;;;;;;;;5076753;28;45529;-78
2022/09/12 14:11:53;;;;;;;;;2.00;2.00;;;;;;;;5076543;28;46692;-80
2022/09/12 14:14:23;;;;;;;;;3.00;2.33;;;;;;;;5079908;28;45427;-80
2022/09/12 14:16:49;;;;;;;;;3.00;3.00;;;;;;;;5080283;28;45440;-79
2022/09/12 14:19:17;;;;;;;;;2.00;2.00;;;;;;;;5080126;28;45522;-81
2022/09/12 14:21:42;;;;;;;;;2.00;2.00;;;;;;;;5080019;28;47593;-80
2022/09/12 14:24:09;;;;;;;;;2.00;2.00;;;;;;;;5079989;27;45364;-82
2022/09/12 14:26:36;;;;;;;;;2.67;2.67;;;;;;;;5080071;28;45297;-80
2022/09/12 14:29:04;;;;;;;;;2.33;2.33;;;;;;;;5080196;28;45319;-77
2022/09/12 14:31:31;;;;;;;;;1.00;1.00;;;;;;;;5079913;28;45295;-80
2022/09/12 14:34:13;;;;;;;;;3.67;3.33;;;;;;;;5061627;28;45334;-79
2022/09/12 14:36:46;;;;;;;;;3.33;2.00;;;;;;;;5080012;28;45404;-79
2022/09/12 14:39:21;;;;;;;;;2.00;2.00;;;;;;;;5079770;28;45458;-80
2022/09/12 14:41:47;;;;;;;;;10.33;8.67;;;;;;;;5079499;28;46534;-79
2022/09/12 14:44:18;;;;;;;;;2.67;2.67;;;;;;;;5079768;27;45428;-79
2022/09/12 14:46:43;;;;;;;;;2.67;2.67;;;;;;;;5079380;27;45439;-81
2022/09/12 14:49:13;;;;;;;;;1.33;1.33;;;;;;;;5079933;28;45276;-79